sensor_id;sensor_type;location;lat;lon;timestamp;pressure;altitude;pressure_sealevel;temperature;humidity
63306;BME280;50735;52.060;1.248;2023-06-14T00:00:19;101377.84;;;14.54;44.72
63306;BME280;50735;52.060;1.248;2023-06-14T00:02:51;101378.86;;;14.71;44.71
63306;BME280;50735;52.060;1.248;2023-06-14T00:05:23;101377.05;;;14.41;45.32
63306;BME280;50735;52.060;1.248;2023-06-14T00:07:55;101374.76;;;14.32;46.97
63306;BME280;50735;52.060;1.248;2023-06-14T00:10:26;101371.90;;;14.34;46.30
63306;BME280;50735;52.060;1.248;2023-06-14T00:12:58;101372.16;;;14.21;46.27
63306;BME280;50735;52.060;1.248;2023-06-14T00:15:31;101370.18;;;14.28;46.65
63306;BME280;50735;52.060;1.248;2023-06-14T00:18:04;101373.80;;;13.22;48.80
63306;BME280;50735;52.060;1.248;2023-06-14T00:20:36;101367.86;;;13.73;48.68
63306;BME280;50735;52.060;1.248;2023-06-14T00:23:07;101363.98;;;13.63;47.71
63306;BME280;50735;52.060;1.248;2023-06-14T00:25:39;101361.02;;;13.97;47.63
63306;BME280;50735;52.060;1.248;2023-06-14T00:28:11;101363.70;;;13.55;47.84
63306;BME280;50735;52.060;1.248;2023-06-14T00:30:42;101363.64;;;13.80;48.61
63306;BME280;50735;52.060;1.248;2023-06-14T00:33:14;101360.72;;;13.54;48.64
63306;BME280;50735;52.060;1.248;2023-06-14T00:35:46;101360.43;;;13.24;49.51
63306;BME280;50735;52.060;1.248;2023-06-14T00:38:18;101360.57;;;13.23;49.99
63306;BME280;50735;52.060;1.248;2023-06-14T00:40:51;101358.28;;;12.93;50.99
63306;BME280;50735;52.060;1.248;2023-06-14T00:43:22;101358.66;;;12.83;51.12
63306;BME280;50735;52.060;1.248;2023-06-14T00:45:54;101359.42;;;12.79;51.13
63306;BME280;50735;52.060;1.248;2023-06-14T00:48:27;101354.26;;;12.86;50.42
63306;BME280;50735;52.060;1.248;2023-06-14T00:51:00;101353.29;;;13.08;50.51
63306;BME280;50735;52.060;1.248;2023-06-14T00:53:32;101352.34;;;13.10;50.53
63306;BME280;50735;52.060;1.248;2023-06-14T00:56:05;101353.53;;;13.24;50.31
63306;BME280;50735;52.060;1.248;2023-06-14T00:58:37;101352.46;;;13.22;50.45
63306;BME280;50735;52.060;1.248;2023-06-14T01:01:10;101353.14;;;13.40;50.64
63306;BME280;50735;52.060;1.248;2023-06-14T01:03:42;101350.64;;;13.20;50.58
63306;BME280;50735;52.060;1.248;2023-06-14T01:06:19;101349.08;;;12.98;50.97
63306;BME280;50735;52.060;1.248;2023-06-14T01:09:03;101352.95;;;12.72;51.41
63306;BME280;50735;52.060;1.248;2023-06-14T01:11:44;101351.34;;;13.05;51.18
63306;BME280;50735;52.060;1.248;2023-06-14T01:14:20;101353.23;;;13.63;49.37
63306;BME280;50735;52.060;1.248;2023-06-14T01:16:52;101350.75;;;13.63;49.54
63306;BME280;50735;52.060;1.248;2023-06-14T01:19:24;101352.23;;;13.50;49.74
63306;BME280;50735;52.060;1.248;2023-06-14T01:21:56;101351.82;;;13.59;48.80
63306;BME280;50735;52.060;1.248;2023-06-14T01:24:29;101356.07;;;13.51;49.90
63306;BME280;50735;52.060;1.248;2023-06-14T01:27:02;101355.77;;;13.18;50.93
63306;BME280;50735;52.060;1.248;2023-06-14T01:29:34;101356.04;;;13.66;50.18
63306;BME280;50735;52.060;1.248;2023-06-14T01:32:07;101357.59;;;13.42;49.56
63306;BME280;50735;52.060;1.248;2023-06-14T01:34:39;101358.02;;;13.29;50.57
63306;BME280;50735;52.060;1.248;2023-06-14T01:37:11;101360.47;;;13.30;50.52
63306;BME280;50735;52.060;1.248;2023-06-14T01:39:44;101361.74;;;13.14;50.10
63306;BME280;50735;52.060;1.248;2023-06-14T01:42:17;101359.80;;;13.42;50.39
63306;BME280;50735;52.060;1.248;2023-06-14T01:44:51;101358.70;;;13.48;50.69
63306;BME280;50735;52.060;1.248;2023-06-14T01:47:24;101359.61;;;13.43;50.46
63306;BME280;50735;52.060;1.248;2023-06-14T01:49:56;101358.56;;;13.24;50.37
63306;BME280;50735;52.060;1.248;2023-06-14T01:52:28;101360.40;;;13.28;50.20
63306;BME280;50735;52.060;1.248;2023-06-14T01:54:59;101360.65;;;13.35;50.65
63306;BME280;50735;52.060;1.248;2023-06-14T01:57:31;101357.36;;;13.31;51.04
63306;BME280;50735;52.060;1.248;2023-06-14T02:00:03;101355.47;;;13.20;50.52
63306;BME280;50735;52.060;1.248;2023-06-14T02:02:36;101355.59;;;13.35;50.36
63306;BME280;50735;52.060;1.248;2023-06-14T02:05:07;101359.12;;;13.55;50.08
63306;BME280;50735;52.060;1.248;2023-06-14T02:07:39;101356.92;;;13.39;50.28
63306;BME280;50735;52.060;1.248;2023-06-14T02:10:11;101354.96;;;13.32;50.40
63306;BME280;50735;52.060;1.248;2023-06-14T02:12:43;101354.28;;;13.41;50.00
63306;BME280;50735;52.060;1.248;2023-06-14T02:15:15;101353.87;;;13.46;49.86
63306;BME280;50735;52.060;1.248;2023-06-14T02:17:48;101352.83;;;13.73;49.41
63306;BME280;50735;52.060;1.248;2023-06-14T02:20:20;101351.65;;;13.49;49.68
63306;BME280;50735;52.060;1.248;2023-06-14T02:22:51;101354.46;;;13.57;49.04
63306;BME280;50735;52.060;1.248;2023-06-14T02:25:23;101354.93;;;13.55;49.65
63306;BME280;50735;52.060;1.248;2023-06-14T02:27:55;101355.97;;;13.69;49.90
63306;BME280;50735;52.060;1.248;2023-06-14T02:30:26;101353.14;;;13.69;49.96
63306;BME280;50735;52.060;1.248;2023-06-14T02:32:58;101351.82;;;13.68;49.44
63306;BME280;50735;52.060;1.248;2023-06-14T02:35:30;101349.68;;;13.92;49.50
63306;BME280;50735;52.060;1.248;2023-06-14T02:38:02;101347.39;;;13.93;49.60
63306;BME280;50735;52.060;1.248;2023-06-14T02:40:34;101345.63;;;13.68;49.61
63306;BME280;50735;52.060;1.248;2023-06-14T02:43:06;101348.10;;;13.49;49.24
63306;BME280;50735;52.060;1.248;2023-06-14T02:45:37;101346.46;;;13.91;49.20
63306;BME280;50735;52.060;1.248;2023-06-14T02:48:09;101348.49;;;13.70;49.18
63306;BME280;50735;52.060;1.248;2023-06-14T02:50:41;101347.21;;;13.62;50.05
63306;BME280;50735;52.060;1.248;2023-06-14T02:53:13;101346.84;;;13.58;49.56
63306;BME280;50735;52.060;1.248;2023-06-14T02:55:44;101344.20;;;13.61;50.06
63306;BME280;50735;52.060;1.248;2023-06-14T02:58:17;101344.41;;;13.76;50.35
63306;BME280;50735;52.060;1.248;2023-06-14T03:00:49;101343.82;;;13.26;49.91
63306;BME280;50735;52.060;1.248;2023-06-14T03:03:21;101343.76;;;13.47;50.91
63306;BME280;50735;52.060;1.248;2023-06-14T03:05:52;101341.27;;;13.09;50.53
63306;BME280;50735;52.060;1.248;2023-06-14T03:08:24;101342.70;;;13.41;50.79
63306;BME280;50735;52.060;1.248;2023-06-14T03:10:56;101341.35;;;13.13;50.09
63306;BME280;50735;52.060;1.248;2023-06-14T03:13:28;101345.59;;;13.62;50.12
63306;BME280;50735;52.060;1.248;2023-06-14T03:16:00;101344.45;;;13.50;50.37
63306;BME280;50735;52.060;1.248;2023-06-14T03:18:32;101345.38;;;13.63;50.54
63306;BME280;50735;52.060;1.248;2023-06-14T03:21:04;101349.50;;;13.32;50.72
63306;BME280;50735;52.060;1.248;2023-06-14T03:23:36;101349.54;;;13.40;51.36
63306;BME280;50735;52.060;1.248;2023-06-14T03:26:08;101350.09;;;12.86;52.74
63306;BME280;50735;52.060;1.248;2023-06-14T03:28:39;101349.88;;;12.89;52.77
63306;BME280;50735;52.060;1.248;2023-06-14T03:31:11;101351.69;;;12.93;53.31
63306;BME280;50735;52.060;1.248;2023-06-14T03:33:44;101353.50;;;13.11;52.30
63306;BME280;50735;52.060;1.248;2023-06-14T03:36:16;101356.90;;;12.82;52.29
63306;BME280;50735;52.060;1.248;2023-06-14T03:38:48;101354.89;;;12.83;53.28
63306;BME280;50735;52.060;1.248;2023-06-14T03:41:20;101357.25;;;12.99;52.56
63306;BME280;50735;52.060;1.248;2023-06-14T03:43:52;101356.87;;;13.34;51.97
63306;BME280;50735;52.060;1.248;2023-06-14T03:46:24;101358.65;;;13.12;51.87
63306;BME280;50735;52.060;1.248;2023-06-14T03:48:56;101359.86;;;13.38;51.50
63306;BME280;50735;52.060;1.248;2023-06-14T03:51:28;101361.95;;;13.23;52.08
63306;BME280;50735;52.060;1.248;2023-06-14T03:53:59;101363.14;;;13.31;51.95
63306;BME280;50735;52.060;1.248;2023-06-14T03:56:31;101362.97;;;13.55;51.31
63306;BME280;50735;52.060;1.248;2023-06-14T03:59:03;101362.57;;;13.48;51.48
63306;BME280;50735;52.060;1.248;2023-06-14T04:01:35;101363.92;;;13.51;51.38
63306;BME280;50735;52.060;1.248;2023-06-14T04:04:07;101366.45;;;13.44;51.30
63306;BME280;50735;52.060;1.248;2023-06-14T04:06:39;101366.25;;;13.61;51.95
63306;BME280;50735;52.060;1.248;2023-06-14T04:09:10;101362.57;;;13.23;52.21
63306;BME280;50735;52.060;1.248;2023-06-14T04:11:42;101360.19;;;13.17;53.47
63306;BME280;50735;52.060;1.248;2023-06-14T04:14:13;101360.97;;;12.93;54.19
63306;BME280;50735;52.060;1.248;2023-06-14T04:16:45;101357.54;;;13.16;53.52
63306;BME280;50735;52.060;1.248;2023-06-14T04:19:17;101360.81;;;13.16;54.43
63306;BME280;50735;52.060;1.248;2023-06-14T04:21:49;101362.83;;;13.12;54.70
63306;BME280;50735;52.060;1.248;2023-06-14T04:24:20;101363.27;;;12.71;55.77
63306;BME280;50735;52.060;1.248;2023-06-14T04:26:52;101363.86;;;12.77;55.93
63306;BME280;50735;52.060;1.248;2023-06-14T04:29:24;101363.66;;;12.76;56.11
63306;BME280;50735;52.060;1.248;2023-06-14T04:31:56;101362.38;;;12.63;55.96
63306;BME280;50735;52.060;1.248;2023-06-14T04:34:28;101361.39;;;12.53;56.14
63306;BME280;50735;52.060;1.248;2023-06-14T04:37:00;101363.28;;;12.43;56.68
63306;BME280;50735;52.060;1.248;2023-06-14T04:39:32;101368.02;;;12.95;55.65
63306;BME280;50735;52.060;1.248;2023-06-14T04:42:04;101367.58;;;12.57;56.92
63306;BME280;50735;52.060;1.248;2023-06-14T04:44:36;101369.21;;;12.56;56.67
63306;BME280;50735;52.060;1.248;2023-06-14T04:47:08;101369.47;;;12.62;56.52
63306;BME280;50735;52.060;1.248;2023-06-14T04:49:40;101371.95;;;12.32;56.80
63306;BME280;50735;52.060;1.248;2023-06-14T04:52:13;101375.06;;;12.66;57.09
63306;BME280;50735;52.060;1.248;2023-06-14T04:54:44;101374.06;;;12.57;57.69
63306;BME280;50735;52.060;1.248;2023-06-14T04:57:16;101373.50;;;12.45;57.84
63306;BME280;50735;52.060;1.248;2023-06-14T04:59:49;101373.56;;;12.41;58.05
63306;BME280;50735;52.060;1.248;2023-06-14T05:02:21;101377.10;;;12.29;58.39
63306;BME280;50735;52.060;1.248;2023-06-14T05:04:53;101376.57;;;12.58;57.73
63306;BME280;50735;52.060;1.248;2023-06-14T05:07:25;101380.04;;;12.62;57.10
63306;BME280;50735;52.060;1.248;2023-06-14T05:09:56;101384.79;;;12.46;57.61
63306;BME280;50735;52.060;1.248;2023-06-14T05:12:28;101389.32;;;12.89;57.32
63306;BME280;50735;52.060;1.248;2023-06-14T05:15:00;101390.00;;;13.00;55.66
63306;BME280;50735;52.060;1.248;2023-06-14T05:17:31;101388.81;;;13.46;56.45
63306;BME280;50735;52.060;1.248;2023-06-14T05:20:04;101391.17;;;13.63;55.72
63306;BME280;50735;52.060;1.248;2023-06-14T05:22:36;101394.52;;;13.72;55.89
63306;BME280;50735;52.060;1.248;2023-06-14T05:25:08;101395.85;;;13.69;55.87
63306;BME280;50735;52.060;1.248;2023-06-14T05:27:40;101396.89;;;13.63;56.11
63306;BME280;50735;52.060;1.248;2023-06-14T05:30:13;101394.90;;;14.07;55.51
63306;BME280;50735;52.060;1.248;2023-06-14T05:32:45;101397.59;;;13.78;55.95
63306;BME280;50735;52.060;1.248;2023-06-14T05:35:17;101396.71;;;13.54;56.54
63306;BME280;50735;52.060;1.248;2023-06-14T05:37:49;101393.96;;;13.56;56.79
63306;BME280;50735;52.060;1.248;2023-06-14T05:40:21;101395.94;;;13.59;56.73
63306;BME280;50735;52.060;1.248;2023-06-14T05:42:52;101395.27;;;13.70;56.35
63306;BME280;50735;52.060;1.248;2023-06-14T05:45:24;101398.72;;;13.49;57.27
63306;BME280;50735;52.060;1.248;2023-06-14T05:47:56;101404.60;;;13.19;58.18
63306;BME280;50735;52.060;1.248;2023-06-14T05:50:27;101404.19;;;13.05;58.55
63306;BME280;50735;52.060;1.248;2023-06-14T05:52:59;101404.03;;;13.23;58.63
63306;BME280;50735;52.060;1.248;2023-06-14T05:55:31;101403.98;;;13.00;58.80
63306;BME280;50735;52.060;1.248;2023-06-14T05:58:03;101407.26;;;13.69;57.53
63306;BME280;50735;52.060;1.248;2023-06-14T06:00:35;101409.48;;;13.67;57.89
63306;BME280;50735;52.060;1.248;2023-06-14T06:03:06;101409.15;;;13.73;58.09
63306;BME280;50735;52.060;1.248;2023-06-14T06:05:38;101415.30;;;14.25;57.24
63306;BME280;50735;52.060;1.248;2023-06-14T06:08:10;101412.89;;;14.09;56.85
63306;BME280;50735;52.060;1.248;2023-06-14T06:10:42;101418.11;;;14.50;56.07
63306;BME280;50735;52.060;1.248;2023-06-14T06:13:14;101418.99;;;14.52;54.95
63306;BME280;50735;52.060;1.248;2023-06-14T06:15:46;101423.77;;;14.02;56.14
63306;BME280;50735;52.060;1.248;2023-06-14T06:18:17;101423.72;;;14.42;56.24
63306;BME280;50735;52.060;1.248;2023-06-14T06:20:49;101423.15;;;14.88;56.17
63306;BME280;50735;52.060;1.248;2023-06-14T06:23:20;101422.39;;;14.84;55.61
63306;BME280;50735;52.060;1.248;2023-06-14T06:25:52;101426.19;;;14.87;54.91
63306;BME280;50735;52.060;1.248;2023-06-14T06:28:24;101429.24;;;14.94;55.37
63306;BME280;50735;52.060;1.248;2023-06-14T06:30:56;101432.12;;;15.26;54.38
63306;BME280;50735;52.060;1.248;2023-06-14T06:33:27;101435.51;;;15.60;53.47
63306;BME280;50735;52.060;1.248;2023-06-14T06:36:00;101438.21;;;15.51;53.17
63306;BME280;50735;52.060;1.248;2023-06-14T06:38:31;101444.44;;;15.85;53.23
63306;BME280;50735;52.060;1.248;2023-06-14T06:41:03;101447.20;;;15.45;53.72
63306;BME280;50735;52.060;1.248;2023-06-14T06:43:35;101450.39;;;15.53;53.41
63306;BME280;50735;52.060;1.248;2023-06-14T06:46:07;101447.85;;;16.01;52.45
63306;BME280;50735;52.060;1.248;2023-06-14T06:48:38;101450.62;;;16.39;51.84
63306;BME280;50735;52.060;1.248;2023-06-14T06:51:10;101449.79;;;15.86;51.97
63306;BME280;50735;52.060;1.248;2023-06-14T06:53:42;101451.62;;;15.67;52.45
63306;BME280;50735;52.060;1.248;2023-06-14T06:56:14;101456.03;;;15.49;52.47
63306;BME280;50735;52.060;1.248;2023-06-14T06:58:45;101454.83;;;15.63;52.58
63306;BME280;50735;52.060;1.248;2023-06-14T07:01:17;101458.10;;;15.44;53.00
63306;BME280;50735;52.060;1.248;2023-06-14T07:03:50;101462.42;;;15.84;52.27
63306;BME280;50735;52.060;1.248;2023-06-14T07:06:22;101459.35;;;15.93;51.71
63306;BME280;50735;52.060;1.248;2023-06-14T07:08:54;101461.43;;;16.65;50.60
63306;BME280;50735;52.060;1.248;2023-06-14T07:11:25;101464.11;;;16.13;50.49
63306;BME280;50735;52.060;1.248;2023-06-14T07:13:57;101466.27;;;16.16;49.82
63306;BME280;50735;52.060;1.248;2023-06-14T07:16:29;101460.96;;;16.32;49.29
63306;BME280;50735;52.060;1.248;2023-06-14T07:19:02;101458.70;;;16.60;48.21
63306;BME280;50735;52.060;1.248;2023-06-14T07:21:34;101462.28;;;17.25;47.13
63306;BME280;50735;52.060;1.248;2023-06-14T07:24:06;101464.97;;;17.64;46.66
63306;BME280;50735;52.060;1.248;2023-06-14T07:26:38;101467.46;;;17.70;46.91
63306;BME280;50735;52.060;1.248;2023-06-14T07:29:10;101468.85;;;17.88;46.39
63306;BME280;50735;52.060;1.248;2023-06-14T07:31:41;101466.93;;;17.50;46.29
63306;BME280;50735;52.060;1.248;2023-06-14T07:34:13;101467.92;;;17.12;46.49
63306;BME280;50735;52.060;1.248;2023-06-14T07:36:45;101470.40;;;17.63;45.67
63306;BME280;50735;52.060;1.248;2023-06-14T07:39:17;101469.73;;;17.58;45.84
63306;BME280;50735;52.060;1.248;2023-06-14T07:41:49;101471.78;;;18.14;45.43
63306;BME280;50735;52.060;1.248;2023-06-14T07:44:21;101471.61;;;18.33;44.55
63306;BME280;50735;52.060;1.248;2023-06-14T07:46:53;101471.25;;;17.94;43.95
63306;BME280;50735;52.060;1.248;2023-06-14T07:49:26;101477.72;;;18.62;43.92
63306;BME280;50735;52.060;1.248;2023-06-14T07:51:58;101478.23;;;18.90;41.36
63306;BME280;50735;52.060;1.248;2023-06-14T07:54:30;101483.84;;;18.59;41.86
63306;BME280;50735;52.060;1.248;2023-06-14T07:57:02;101483.68;;;18.70;41.34
63306;BME280;50735;52.060;1.248;2023-06-14T07:59:34;101484.04;;;18.70;41.43
63306;BME280;50735;52.060;1.248;2023-06-14T08:02:07;101482.51;;;18.45;41.28
63306;BME280;50735;52.060;1.248;2023-06-14T08:04:38;101481.38;;;18.77;40.34
63306;BME280;50735;52.060;1.248;2023-06-14T08:07:10;101491.96;;;19.33;39.74
63306;BME280;50735;52.060;1.248;2023-06-14T08:09:42;101488.02;;;20.28;39.13
63306;BME280;50735;52.060;1.248;2023-06-14T08:12:13;101490.02;;;20.34;38.72
63306;BME280;50735;52.060;1.248;2023-06-14T08:14:45;101489.83;;;20.12;38.41
63306;BME280;50735;52.060;1.248;2023-06-14T08:17:17;101487.82;;;20.56;37.98
63306;BME280;50735;52.060;1.248;2023-06-14T08:19:49;101487.16;;;20.91;37.24
63306;BME280;50735;52.060;1.248;2023-06-14T08:22:20;101492.96;;;19.76;37.58
63306;BME280;50735;52.060;1.248;2023-06-14T08:24:52;101493.80;;;18.98;37.89
63306;BME280;50735;52.060;1.248;2023-06-14T08:27:24;101494.45;;;19.82;37.16
63306;BME280;50735;52.060;1.248;2023-06-14T08:29:56;101492.96;;;20.06;36.21
63306;BME280;50735;52.060;1.248;2023-06-14T08:32:28;101491.77;;;20.59;36.38
63306;BME280;50735;52.060;1.248;2023-06-14T08:35:01;101487.31;;;20.73;35.44
63306;BME280;50735;52.060;1.248;2023-06-14T08:37:33;101486.64;;;21.38;34.81
63306;BME280;50735;52.060;1.248;2023-06-14T08:40:12;101483.76;;;21.49;34.00
63306;BME280;50735;52.060;1.248;2023-06-14T08:42:51;101482.26;;;21.18;33.91
63306;BME280;50735;52.060;1.248;2023-06-14T08:45:24;101480.68;;;21.93;34.06
63306;BME280;50735;52.060;1.248;2023-06-14T08:47:56;101482.66;;;21.39;33.01
63306;BME280;50735;52.060;1.248;2023-06-14T08:50:29;101482.98;;;21.36;33.93
63306;BME280;50735;52.060;1.248;2023-06-14T08:53:02;101488.17;;;22.20;33.42
63306;BME280;50735;52.060;1.248;2023-06-14T08:55:34;101493.70;;;21.19;33.23
63306;BME280;50735;52.060;1.248;2023-06-14T08:58:06;101487.37;;;21.35;32.54
63306;BME280;50735;52.060;1.248;2023-06-14T09:00:38;101486.96;;;22.62;31.94
63306;BME280;50735;52.060;1.248;2023-06-14T09:03:10;101488.47;;;23.05;31.81
63306;BME280;50735;52.060;1.248;2023-06-14T09:05:41;101489.36;;;23.03;31.39
63306;BME280;50735;52.060;1.248;2023-06-14T09:08:13;101489.88;;;23.13;31.42
63306;BME280;50735;52.060;1.248;2023-06-14T09:10:45;101490.34;;;23.20;31.66
63306;BME280;50735;52.060;1.248;2023-06-14T09:13:17;101493.96;;;23.94;31.07
63306;BME280;50735;52.060;1.248;2023-06-14T09:15:49;101497.63;;;23.65;30.53
63306;BME280;50735;52.060;1.248;2023-06-14T09:18:21;101499.24;;;23.59;30.28
63306;BME280;50735;52.060;1.248;2023-06-14T09:21:06;101495.60;;;23.26;30.06
63306;BME280;50735;52.060;1.248;2023-06-14T09:23:39;101497.20;;;23.91;29.92
63306;BME280;50735;52.060;1.248;2023-06-14T09:26:13;101501.79;;;24.69;30.35
63306;BME280;50735;52.060;1.248;2023-06-14T09:28:46;101508.06;;;24.96;29.80
63306;BME280;50735;52.060;1.248;2023-06-14T09:31:20;101511.53;;;25.06;29.45
63306;BME280;50735;52.060;1.248;2023-06-14T09:33:53;101510.29;;;25.63;28.87
63306;BME280;50735;52.060;1.248;2023-06-14T09:36:25;101508.49;;;26.25;28.59
63306;BME280;50735;52.060;1.248;2023-06-14T09:38:59;101514.67;;;25.30;28.92
63306;BME280;50735;52.060;1.248;2023-06-14T09:41:31;101517.72;;;25.29;28.77
63306;BME280;50735;52.060;1.248;2023-06-14T09:44:05;101520.30;;;25.40;28.21
63306;BME280;50735;52.060;1.248;2023-06-14T09:46:37;101511.26;;;25.93;27.68
63306;BME280;50735;52.060;1.248;2023-06-14T09:49:10;101519.33;;;24.66;28.91
63306;BME280;50735;52.060;1.248;2023-06-14T09:51:43;101520.21;;;24.48;28.75
63306;BME280;50735;52.060;1.248;2023-06-14T09:54:22;101521.31;;;24.52;29.12
63306;BME280;50735;52.060;1.248;2023-06-14T09:56:55;101525.34;;;24.98;29.42
63306;BME280;50735;52.060;1.248;2023-06-14T09:59:30;101520.07;;;25.16;29.14
63306;BME280;50735;52.060;1.248;2023-06-14T10:02:09;101522.07;;;25.69;28.89
63306;BME280;50735;52.060;1.248;2023-06-14T10:04:46;101518.02;;;26.12;27.53
63306;BME280;50735;52.060;1.248;2023-06-14T10:07:20;101524.41;;;25.72;27.60
63306;BME280;50735;52.060;1.248;2023-06-14T10:09:54;101527.16;;;25.80;27.33
63306;BME280;50735;52.060;1.248;2023-06-14T10:12:26;101534.18;;;24.71;28.74
63306;BME280;50735;52.060;1.248;2023-06-14T10:14:58;101531.03;;;24.24;29.29
63306;BME280;50735;52.060;1.248;2023-06-14T10:17:46;101529.29;;;25.20;28.67
63306;BME280;50735;52.060;1.248;2023-06-14T10:20:26;101526.40;;;25.47;27.81
63306;BME280;50735;52.060;1.248;2023-06-14T10:23:11;101521.36;;;26.60;27.09
63306;BME280;50735;52.060;1.248;2023-06-14T10:25:45;101525.25;;;25.29;27.64
63306;BME280;50735;52.060;1.248;2023-06-14T10:28:17;101522.87;;;25.75;27.61
63306;BME280;50735;52.060;1.248;2023-06-14T10:31:06;101526.40;;;25.27;27.90
63306;BME280;50735;52.060;1.248;2023-06-14T10:33:41;101524.79;;;25.01;28.13
63306;BME280;50735;52.060;1.248;2023-06-14T10:36:28;101524.83;;;25.53;28.50
63306;BME280;50735;52.060;1.248;2023-06-14T10:39:04;101520.60;;;25.95;27.31
63306;BME280;50735;52.060;1.248;2023-06-14T10:41:37;101523.85;;;26.02;27.48
63306;BME280;50735;52.060;1.248;2023-06-14T10:44:31;101521.80;;;25.21;27.00
63306;BME280;50735;52.060;1.248;2023-06-14T10:47:06;101521.04;;;25.17;26.88
63306;BME280;50735;52.060;1.248;2023-06-14T10:49:41;101522.08;;;25.93;25.95
63306;BME280;50735;52.060;1.248;2023-06-14T10:52:15;101518.75;;;25.55;26.18
63306;BME280;50735;52.060;1.248;2023-06-14T10:55:05;101519.53;;;25.54;25.58
63306;BME280;50735;52.060;1.248;2023-06-14T10:57:39;101517.46;;;25.87;26.20
63306;BME280;50735;52.060;1.248;2023-06-14T11:00:12;101519.57;;;25.30;26.48
63306;BME280;50735;52.060;1.248;2023-06-14T11:02:51;101518.96;;;25.89;26.40
63306;BME280;50735;52.060;1.248;2023-06-14T11:05:25;101524.55;;;25.65;25.88
63306;BME280;50735;52.060;1.248;2023-06-14T11:08:26;101519.77;;;25.75;25.86
63306;BME280;50735;52.060;1.248;2023-06-14T11:10:59;101517.84;;;25.84;26.10
63306;BME280;50735;52.060;1.248;2023-06-14T11:13:32;101519.92;;;25.37;25.49
63306;BME280;50735;52.060;1.248;2023-06-14T11:16:10;101510.24;;;24.99;26.23
63306;BME280;50735;52.060;1.248;2023-06-14T11:18:44;101513.69;;;25.58;26.60
63306;BME280;50735;52.060;1.248;2023-06-14T11:21:17;101507.89;;;25.65;25.93
63306;BME280;50735;52.060;1.248;2023-06-14T11:23:50;101504.95;;;26.19;25.47
63306;BME280;50735;52.060;1.248;2023-06-14T11:26:25;101503.98;;;26.37;25.21
63306;BME280;50735;52.060;1.248;2023-06-14T11:28:58;101503.01;;;26.64;24.87
63306;BME280;50735;52.060;1.248;2023-06-14T11:31:31;101504.95;;;26.58;24.93
63306;BME280;50735;52.060;1.248;2023-06-14T11:34:02;101505.50;;;26.61;25.09
63306;BME280;50735;52.060;1.248;2023-06-14T11:36:35;101501.86;;;26.90;25.32
63306;BME280;50735;52.060;1.248;2023-06-14T11:39:07;101499.82;;;26.88;24.70
63306;BME280;50735;52.060;1.248;2023-06-14T11:41:42;101504.69;;;26.65;25.12
63306;BME280;50735;52.060;1.248;2023-06-14T11:44:14;101508.76;;;25.37;25.26
63306;BME280;50735;52.060;1.248;2023-06-14T11:46:45;101509.25;;;25.46;25.45
63306;BME280;50735;52.060;1.248;2023-06-14T11:49:18;101503.58;;;26.30;25.78
63306;BME280;50735;52.060;1.248;2023-06-14T11:51:50;101501.26;;;27.49;25.21
63306;BME280;50735;52.060;1.248;2023-06-14T11:54:22;101501.83;;;27.59;23.75
63306;BME280;50735;52.060;1.248;2023-06-14T11:56:53;101504.72;;;27.51;24.17
63306;BME280;50735;52.060;1.248;2023-06-14T11:59:25;101503.62;;;26.79;23.95
63306;BME280;50735;52.060;1.248;2023-06-14T12:01:57;101507.66;;;26.57;24.29
63306;BME280;50735;52.060;1.248;2023-06-14T12:04:29;101507.56;;;26.59;24.52
63306;BME280;50735;52.060;1.248;2023-06-14T12:07:08;101509.15;;;26.75;24.18
63306;BME280;50735;52.060;1.248;2023-06-14T12:09:40;101512.43;;;26.42;23.74
63306;BME280;50735;52.060;1.248;2023-06-14T12:12:12;101510.19;;;26.25;23.71
63306;BME280;50735;52.060;1.248;2023-06-14T12:14:44;101513.60;;;26.13;24.16
63306;BME280;50735;52.060;1.248;2023-06-14T12:17:17;101511.43;;;26.65;23.57
63306;BME280;50735;52.060;1.248;2023-06-14T12:19:50;101510.93;;;27.15;22.81
63306;BME280;50735;52.060;1.248;2023-06-14T12:22:22;101506.12;;;26.39;23.67
63306;BME280;50735;52.060;1.248;2023-06-14T12:24:53;101505.37;;;26.59;22.61
63306;BME280;50735;52.060;1.248;2023-06-14T12:27:25;101505.79;;;26.90;22.85
63306;BME280;50735;52.060;1.248;2023-06-14T12:30:00;101505.25;;;27.30;22.87
63306;BME280;50735;52.060;1.248;2023-06-14T12:32:32;101504.58;;;26.86;23.25
63306;BME280;50735;52.060;1.248;2023-06-14T12:35:04;101505.56;;;27.05;22.68
63306;BME280;50735;52.060;1.248;2023-06-14T12:37:36;101508.51;;;26.41;22.92
63306;BME280;50735;52.060;1.248;2023-06-14T12:40:09;101512.84;;;27.19;23.11
63306;BME280;50735;52.060;1.248;2023-06-14T12:42:41;101517.12;;;26.83;22.63
63306;BME280;50735;52.060;1.248;2023-06-14T12:45:13;101513.89;;;26.80;22.92
63306;BME280;50735;52.060;1.248;2023-06-14T12:47:45;101514.66;;;26.42;22.57
63306;BME280;50735;52.060;1.248;2023-06-14T12:50:17;101511.76;;;26.49;23.24
63306;BME280;50735;52.060;1.248;2023-06-14T12:52:49;101514.45;;;26.18;23.36
63306;BME280;50735;52.060;1.248;2023-06-14T12:55:20;101512.09;;;26.57;24.02
63306;BME280;50735;52.060;1.248;2023-06-14T12:57:52;101516.14;;;26.65;23.67
63306;BME280;50735;52.060;1.248;2023-06-14T13:00:24;101516.06;;;26.60;23.46
63306;BME280;50735;52.060;1.248;2023-06-14T13:02:55;101517.21;;;26.66;22.87
63306;BME280;50735;52.060;1.248;2023-06-14T13:05:28;101514.21;;;27.06;22.40
63306;BME280;50735;52.060;1.248;2023-06-14T13:08:00;101519.97;;;27.66;22.99
63306;BME280;50735;52.060;1.248;2023-06-14T13:10:32;101518.17;;;27.16;22.64
63306;BME280;50735;52.060;1.248;2023-06-14T13:13:04;101511.90;;;28.09;22.32
63306;BME280;50735;52.060;1.248;2023-06-14T13:15:36;101510.66;;;27.99;22.36
63306;BME280;50735;52.060;1.248;2023-06-14T13:18:08;101516.52;;;27.65;22.17